createdAt,value
2016-05-05T11:18:31.670Z,108128
2016-05-05T11:19:14.499Z,107616
2016-05-05T11:19:57.314Z,108736
2016-05-05T11:20:40.301Z,108320
2016-05-05T11:21:23.301Z,111264
2016-05-05T11:22:06.290Z,110464
2016-05-05T11:22:49.293Z,109728
2016-05-05T11:23:32.152Z,110272
2016-05-05T11:24:15.277Z,109152
2016-05-05T11:24:59.093Z,108768
2016-05-05T11:25:42.080Z,110240
2016-05-05T11:26:24.908Z,108736
2016-05-05T11:27:07.583Z,106976
2016-05-05T11:27:50.414Z,105728
2016-05-05T11:28:33.245Z,106560
2016-05-05T11:29:16.230Z,108032
2016-05-05T11:29:59.061Z,110176
2016-05-05T11:30:41.922Z,109088
2016-05-05T11:31:24.907Z,107584
2016-05-05T11:32:07.911Z,107264
2016-05-05T11:32:50.914Z,105856
2016-05-05T11:33:33.900Z,107936
2016-05-05T11:34:16.744Z,108064
2016-05-05T11:34:59.574Z,109344
2016-05-05T11:35:42.421Z,107136
2016-05-05T11:36:25.405Z,107392
2016-05-05T11:37:08.377Z,105600
2016-05-05T11:37:51.363Z,106432
2016-05-05T11:38:34.335Z,106112
2016-05-05T11:39:17.304Z,106528
2016-05-05T11:40:00.292Z,106112
2016-05-05T11:40:43.138Z,107008
2016-05-05T11:41:26.110Z,105632
2016-05-05T11:42:09.094Z,103488
2016-05-05T11:42:51.940Z,103136
2016-05-05T11:43:34.771Z,105216
2016-05-05T11:44:17.755Z,103872
2016-05-05T11:45:00.742Z,101376
2016-05-05T11:45:43.730Z,104352
2016-05-05T11:46:26.560Z,108800
2016-05-05T11:47:09.544Z,107776
2016-05-05T11:47:52.391Z,106720
2016-05-05T11:48:35.206Z,109280
2016-05-05T11:49:18.049Z,111712
2016-05-05T11:50:01.037Z,111456
2016-05-05T11:50:44.055Z,108256
2016-05-05T11:51:27.042Z,107552
2016-05-05T11:52:09.886Z,105056
2016-05-05T11:52:52.779Z,104512
2016-05-05T11:53:35.610Z,104352
2016-05-05T11:54:18.470Z,105440
2016-05-05T11:55:03.348Z,103744
2016-05-05T11:55:46.210Z,101760
2016-05-05T11:56:29.446Z,100512
2016-05-05T11:57:12.196Z,101568
2016-05-05T11:57:55.184Z,104672
2016-05-05T11:58:38.155Z,106752
2016-05-05T11:59:21.170Z,104544
2016-05-05T12:00:04.251Z,105120
2016-05-05T12:00:47.113Z,105984
2016-05-05T12:01:29.959Z,107072
2016-05-05T12:02:12.944Z,107008
2016-05-05T12:02:55.947Z,107104
2016-05-05T12:03:38.872Z,107040
2016-05-05T12:04:22.059Z,107744
2016-05-05T12:05:04.843Z,107104
2016-05-05T12:05:47.955Z,104672
2016-05-05T12:06:30.848Z,102176
2016-05-05T12:07:14.098Z,105120
2016-05-05T12:07:57.382Z,110240
2016-05-05T12:08:40.385Z,109568
2016-05-05T12:09:23.885Z,107808
2016-05-05T12:10:06.763Z,106944
2016-05-05T12:10:50.156Z,107296
2016-05-05T12:11:33.596Z,106272
2016-05-05T12:12:16.424Z,105920
2016-05-05T12:12:59.427Z,104384
2016-05-05T12:13:42.398Z,103040
2016-05-05T12:14:25.226Z,102080
2016-05-05T12:15:08.057Z,100832
2016-05-05T12:15:51.028Z,101728
2016-05-05T12:16:34.016Z,100928
2016-05-05T12:17:17.000Z,101312
2016-05-05T12:17:59.972Z,103168
2016-05-05T12:18:42.959Z,103200
2016-05-05T12:19:25.959Z,102944
2016-05-05T12:20:08.633Z,103872
2016-05-05T12:20:51.526Z,104032
2016-05-05T12:21:34.373Z,103392
2016-05-05T12:22:17.201Z,103456
2016-05-05T12:23:00.187Z,104256
2016-05-05T12:23:43.034Z,106368
2016-05-05T12:24:26.143Z,106432
2016-05-05T12:25:09.366Z,105344
2016-05-05T12:25:52.228Z,106240
2016-05-05T12:26:35.059Z,103488
2016-05-05T12:27:18.168Z,100768
2016-05-05T12:28:01.014Z,99136
2016-05-05T12:28:44.001Z,100768
2016-05-05T12:29:26.970Z,101312
2016-05-05T12:30:09.988Z,102144
2016-05-05T12:30:52.851Z,102240
2016-05-05T12:31:35.915Z,101216
2016-05-05T12:32:18.884Z,101728
2016-05-05T12:33:01.714Z,101760
2016-05-05T12:33:44.717Z,101376
2016-05-05T12:34:27.530Z,96736
2016-05-05T12:35:10.377Z,95648
2016-05-05T12:35:53.363Z,98112
2016-05-05T12:36:36.210Z,100704
2016-05-05T12:37:19.038Z,102464
2016-05-05T12:38:02.025Z,103584
2016-05-05T12:38:44.872Z,104384
2016-05-05T12:39:27.841Z,106944
2016-05-05T12:40:10.702Z,106016
2016-05-05T12:40:53.689Z,106720
2016-05-05T12:41:36.521Z,105824
2016-05-05T12:42:19.364Z,105952
2016-05-05T12:43:02.194Z,104320
2016-05-05T12:43:45.166Z,101888
2016-05-05T12:44:28.010Z,101728
2016-05-05T12:45:10.857Z,102752
2016-05-05T12:45:53.688Z,101696
2016-05-05T12:46:36.690Z,102464
2016-05-05T12:47:19.534Z,101888
2016-05-05T12:48:02.224Z,101824
2016-05-05T12:48:45.055Z,103232
2016-05-05T12:49:28.055Z,101888
2016-05-05T12:50:11.042Z,104480
2016-05-05T12:50:53.732Z,105568
2016-05-05T12:51:36.703Z,106016
2016-05-05T12:52:19.703Z,103552
2016-05-05T12:53:02.393Z,102368
2016-05-05T12:53:45.381Z,103328
2016-05-05T12:54:28.646Z,102752
2016-05-05T12:55:11.540Z,101568
2016-05-05T12:55:54.527Z,101216
2016-05-05T12:56:37.514Z,102368
2016-05-05T12:57:20.498Z,100640
2016-05-05T12:58:03.500Z,102880
2016-05-05T12:58:46.331Z,106176
2016-05-05T12:59:29.003Z,106752
2016-05-05T13:00:11.835Z,102816
2016-05-05T13:00:54.665Z,100288
2016-05-05T13:01:37.512Z,100352
2016-05-05T13:02:20.496Z,98784
2016-05-05T13:03:03.467Z,98176
2016-05-05T13:03:46.455Z,98048
2016-05-05T13:04:29.439Z,101856
2016-05-05T13:05:12.411Z,100800
2016-05-05T13:05:55.397Z,99392
2016-05-05T13:06:38.228Z,99040
2016-05-05T13:07:21.072Z,100256
2016-05-05T13:08:04.059Z,102144
2016-05-05T13:08:47.062Z,103360
2016-05-05T13:09:29.924Z,102144
2016-05-05T13:10:13.205Z,102592
2016-05-05T13:10:56.192Z,102304
2016-05-05T13:11:39.086Z,101056
2016-05-05T13:12:22.070Z,100128
2016-05-05T13:13:04.900Z,100320
2016-05-05T13:13:47.732Z,100576
2016-05-05T13:14:30.734Z,100608
2016-05-05T13:15:13.718Z,99104
2016-05-05T13:15:56.705Z,96640
2016-05-05T13:16:39.396Z,93856
2016-05-05T13:17:22.208Z,95136
2016-05-05T13:18:05.039Z,99040
2016-05-05T13:18:48.026Z,100352
2016-05-05T13:19:30.873Z,97312
2016-05-05T13:20:13.529Z,93056
2016-05-05T13:20:56.219Z,91264
2016-05-05T13:21:38.910Z,90208
2016-05-05T13:22:21.754Z,92192
2016-05-05T13:23:04.584Z,96032
2016-05-05T13:23:47.587Z,97792
2016-05-05T13:24:30.418Z,94016
2016-05-05T13:25:13.246Z,91136
2016-05-05T13:25:56.092Z,92832
2016-05-05T13:26:38.767Z,94208
2016-05-05T13:27:21.751Z,95744
2016-05-05T13:28:04.738Z,96000
2016-05-05T13:28:47.256Z,92928
2016-05-05T13:29:30.256Z,93312
2016-05-05T13:30:13.243Z,94592
2016-05-05T13:30:56.074Z,92608
2016-05-05T13:31:39.092Z,91264
2016-05-05T13:32:22.076Z,92896
2016-05-05T13:33:05.033Z,94656
2016-05-05T13:33:47.879Z,93760
2016-05-05T13:34:30.867Z,93664
2016-05-05T13:35:13.851Z,93024
2016-05-05T13:35:56.681Z,95008
2016-05-05T13:36:39.527Z,95808
2016-05-05T13:37:26.511Z,94272
2016-05-05T13:38:21.250Z,92448
2016-05-05T13:39:04.455Z,90784
2016-05-05T13:39:48.536Z,90336
2016-05-05T13:40:32.289Z,89440
2016-05-05T13:41:15.992Z,88288
2016-05-05T13:41:58.807Z,85184
2016-05-05T13:42:41.638Z,78048
2016-05-05T13:43:24.481Z,69472
2016-05-05T13:44:07.313Z,66464
2016-05-05T13:44:50.143Z,66048
2016-05-05T13:45:33.130Z,64224
2016-05-05T13:46:15.943Z,60608
2016-05-05T13:46:58.946Z,58496
2016-05-05T13:47:41.933Z,57312
2016-05-05T13:48:24.777Z,54240
2016-05-05T13:49:07.763Z,51040
2016-05-05T13:49:50.281Z,46048
2016-05-05T13:50:33.253Z,40960
2016-05-05T13:51:16.238Z,35616
2016-05-05T13:51:59.209Z,28384
2016-05-05T13:52:42.212Z,21792
2016-05-05T13:53:25.055Z,17680
2016-05-05T13:54:08.043Z,14864
2016-05-05T13:54:52.732Z,13912
2016-05-05T13:55:35.423Z,13404
2016-05-05T13:56:18.251Z,12920
2016-05-05T13:57:01.238Z,12584
2016-05-05T13:57:44.240Z,12272
2016-05-05T13:58:27.225Z,12036
2016-05-05T13:59:10.196Z,11808
2016-05-05T13:59:53.027Z,11636
2016-05-05T14:00:36.014Z,11428
2016-05-05T14:01:18.983Z,11252
2016-05-05T14:02:01.829Z,11092
2016-05-05T14:02:44.831Z,10976
2016-05-05T14:03:27.816Z,10868
2016-05-05T14:04:10.803Z,10752
2016-05-05T14:04:53.790Z,10656
2016-05-05T14:05:36.778Z,10524
2016-05-05T14:06:19.778Z,10376
2016-05-05T14:07:02.592Z,10236
2016-05-05T14:07:45.595Z,10072
2016-05-05T14:08:28.595Z,9976
2016-05-05T14:09:11.426Z,9872
2016-05-05T14:09:54.570Z,9780
2016-05-05T14:10:38.463Z,9736
2016-05-05T14:11:21.306Z,9716
2016-05-05T14:12:04.122Z,9696
2016-05-05T14:12:47.109Z,9688
2016-05-05T14:13:29.937Z,9656
2016-05-05T14:14:12.909Z,9656
2016-05-05T14:14:55.739Z,9656
2016-05-05T14:15:38.570Z,9632
2016-05-05T14:16:21.555Z,9636
2016-05-05T14:17:04.213Z,9612
2016-05-05T14:17:47.076Z,9560
2016-05-05T14:18:30.061Z,9480
2016-05-05T14:19:13.046Z,9416
2016-05-05T14:19:56.034Z,9360
2016-05-05T14:20:38.897Z,9340
2016-05-05T14:21:21.709Z,9220
2016-05-05T14:22:04.680Z,9112
2016-05-05T14:22:47.354Z,9056
2016-05-05T14:23:30.338Z,8960
2016-05-05T14:24:12.998Z,8880
2016-05-05T14:24:55.860Z,8840
2016-05-05T14:25:38.926Z,8776
2016-05-05T14:26:21.629Z,8736
2016-05-05T14:27:04.599Z,8704
2016-05-05T14:27:47.431Z,8644
2016-05-05T14:28:30.384Z,8616
2016-05-05T14:29:13.355Z,8604
2016-05-05T14:29:56.187Z,8588
2016-05-05T14:30:39.189Z,8580
2016-05-05T14:31:22.142Z,8588
2016-05-05T14:32:05.113Z,8608
2016-05-05T14:32:48.101Z,8644
2016-05-05T14:33:30.929Z,8652
2016-05-05T14:34:13.901Z,8640
2016-05-05T14:34:56.887Z,8628
2016-05-05T14:35:39.858Z,8596
2016-05-05T14:36:22.514Z,8568
2016-05-05T14:37:05.346Z,8516
2016-05-05T14:37:48.176Z,8464
2016-05-05T14:38:31.145Z,8396
2016-05-05T14:39:13.836Z,8336
2016-05-05T14:39:56.603Z,8316
2016-05-05T14:40:39.450Z,8280
2016-05-05T14:41:22.122Z,8248
2016-05-05T14:42:05.078Z,8248
2016-05-05T14:42:48.081Z,8232
2016-05-05T14:43:31.050Z,8208
2016-05-05T14:44:13.880Z,8184
2016-05-05T14:44:56.852Z,8144
2016-05-05T14:45:39.855Z,8152
2016-05-05T14:46:22.823Z,8112
2016-05-05T14:47:05.701Z,8048
2016-05-05T14:47:48.530Z,7996
2016-05-05T14:48:31.343Z,7952
2016-05-05T14:49:14.330Z,7912
2016-05-05T14:49:57.161Z,7900
2016-05-05T14:50:40.008Z,7884
2016-05-05T14:51:22.961Z,7864
2016-05-05T14:52:05.948Z,7840
2016-05-05T14:52:48.951Z,7820
2016-05-05T14:53:31.935Z,7796
2016-05-05T14:54:14.922Z,7772
2016-05-05T14:54:57.910Z,7788
2016-05-05T14:55:41.302Z,7720
2016-05-05T14:56:24.115Z,7704
2016-05-05T14:57:07.118Z,7684
2016-05-05T14:57:49.932Z,7668
2016-05-05T14:58:32.932Z,7636
2016-05-05T14:59:15.764Z,7584
2016-05-05T14:59:58.579Z,7552
2016-05-05T15:00:41.565Z,7528
2016-05-05T15:01:24.237Z,7504
2016-05-05T15:02:06.912Z,7504
2016-05-05T15:02:49.884Z,7496
2016-05-05T15:03:32.868Z,7484
2016-05-05T15:04:15.684Z,7464
2016-05-05T15:04:58.671Z,7444
2016-05-05T15:05:41.642Z,7428
2016-05-05T15:06:24.626Z,7392
2016-05-05T15:07:07.286Z,7336
2016-05-05T15:07:50.272Z,7284
2016-05-05T15:08:33.100Z,7240
2016-05-05T15:09:16.056Z,7208
2016-05-05T15:10:00.700Z,7188
2016-05-05T15:10:44.203Z,7180
2016-05-05T15:11:27.031Z,7176
2016-05-05T15:12:09.846Z,7176
2016-05-05T15:12:52.677Z,7168
2016-05-05T15:13:35.648Z,7152
2016-05-05T15:14:18.633Z,7124
2016-05-05T15:15:01.635Z,7096
2016-05-05T15:15:44.294Z,7068
2016-05-05T15:16:26.966Z,7044
2016-05-05T15:17:09.796Z,7016
2016-05-05T15:17:52.769Z,6976
2016-05-05T15:18:35.771Z,6936
2016-05-05T15:19:18.583Z,6908
2016-05-05T15:20:01.398Z,6876
2016-05-05T15:20:44.386Z,6880
2016-05-05T15:21:27.339Z,6840
2016-05-05T15:22:10.155Z,6804
2016-05-05T15:22:52.999Z,6800
2016-05-05T15:23:35.972Z,6792
2016-05-05T15:24:18.941Z,6792
2016-05-05T15:25:03.537Z,6780
2016-05-05T15:25:46.868Z,6756
2016-05-05T15:26:29.837Z,6736
2016-05-05T15:27:12.652Z,6712
2016-05-05T15:27:55.638Z,6704
2016-05-05T15:28:38.610Z,6688
2016-05-05T15:29:21.423Z,6664
2016-05-05T15:30:03.785Z,6656
2016-05-05T15:30:46.459Z,6624
2016-05-05T15:31:29.428Z,6616
2016-05-05T15:32:12.415Z,6584
2016-05-05T15:32:55.245Z,6560
2016-05-05T15:33:38.076Z,6540
2016-05-05T15:34:21.061Z,6508
2016-05-05T15:35:03.907Z,6476
2016-05-05T15:35:46.895Z,6444
2016-05-05T15:36:29.723Z,6424
2016-05-05T15:37:12.695Z,6408
2016-05-05T15:37:55.540Z,6380
2016-05-05T15:38:38.372Z,6340
2016-05-05T15:39:21.340Z,6316
2016-05-05T15:40:04.421Z,6296
2016-05-05T15:40:47.549Z,6296
2016-05-05T15:41:30.534Z,6288
2016-05-05T15:42:13.520Z,6268
2016-05-05T15:42:56.492Z,6232
2016-05-05T15:43:39.306Z,6212
2016-05-05T15:44:22.275Z,6184
2016-05-05T15:45:05.294Z,6164
2016-05-05T15:45:48.141Z,6128
2016-05-05T15:46:31.125Z,6096
2016-05-05T15:47:14.097Z,6072
2016-05-05T15:47:56.755Z,6056
2016-05-05T15:48:39.586Z,6032
2016-05-05T15:49:22.430Z,6012
2016-05-05T15:50:05.105Z,5992
2016-05-05T15:50:48.060Z,5960
2016-05-05T15:51:31.060Z,5940
2016-05-05T15:52:14.016Z,5916
2016-05-05T15:52:57.003Z,5896
2016-05-05T15:53:39.974Z,5880
2016-05-05T15:54:22.787Z,5848
2016-05-05T15:55:05.805Z,5820
2016-05-05T15:55:48.838Z,5800
2016-05-05T15:56:32.276Z,5784
2016-05-05T15:57:15.123Z,5772
2016-05-05T15:57:57.938Z,5764
2016-05-05T15:58:40.753Z,5748
2016-05-05T15:59:23.721Z,5740
2016-05-05T16:00:06.553Z,5732
2016-05-05T16:00:49.368Z,5712
2016-05-05T16:01:32.196Z,5684
2016-05-05T16:02:15.168Z,5648
2016-05-05T16:02:58.265Z,5616
2016-05-05T16:03:41.283Z,5584
2016-05-05T16:04:24.143Z,5556
2016-05-05T16:05:07.081Z,5536
2016-05-05T16:05:49.913Z,5496
2016-05-05T16:06:32.741Z,5484
2016-05-05T16:07:15.573Z,5468
2016-05-05T16:07:58.543Z,5448
2016-05-05T16:08:41.546Z,5420
2016-05-05T16:09:24.515Z,5396
2016-05-05T16:10:07.548Z,5368
2016-05-05T16:10:51.286Z,5348
2016-05-05T16:11:34.254Z,5328
2016-05-05T16:12:17.242Z,5304
2016-05-05T16:13:00.056Z,5284
2016-05-05T16:13:43.044Z,5256
2016-05-05T16:14:25.887Z,5244
2016-05-05T16:15:08.703Z,5232
2016-05-05T16:15:51.674Z,5216
2016-05-05T16:16:34.346Z,5204
2016-05-05T16:17:17.411Z,5192
2016-05-05T16:18:00.492Z,5184
2016-05-05T16:18:43.479Z,5168
2016-05-05T16:19:26.447Z,5164
2016-05-05T16:20:09.200Z,5148
2016-05-05T16:20:52.453Z,5100
2016-05-05T16:21:35.469Z,5112
2016-05-05T16:22:18.456Z,5092
2016-05-05T16:23:01.287Z,5076
2016-05-05T16:23:43.961Z,5064
2016-05-05T16:24:26.930Z,5060
2016-05-05T16:25:10.667Z,5048
2016-05-05T16:25:58.514Z,5036
2016-05-05T16:26:44.157Z,5020
2016-05-05T16:27:29.735Z,5012
2016-05-05T16:28:15.065Z,4992
2016-05-05T16:28:58.678Z,4972
2016-05-05T16:29:41.602Z,4956
2016-05-05T16:30:24.868Z,4936
2016-05-05T16:31:08.027Z,4912
2016-05-05T16:31:51.593Z,4892
2016-05-05T16:32:34.811Z,4868
2016-05-05T16:33:17.860Z,4840
2016-05-05T16:34:00.551Z,4824
2016-05-05T16:34:43.584Z,4800
2016-05-05T16:35:27.053Z,4780
2016-05-05T16:36:10.040Z,4756
2016-05-05T16:36:53.184Z,4736
2016-05-05T16:37:36.246Z,4712
2016-05-05T16:38:19.421Z,4696
2016-05-05T16:39:02.502Z,4676
2016-05-05T16:39:45.629Z,4648
2016-05-05T16:40:29.098Z,4624
2016-05-05T16:41:12.085Z,4600
2016-05-05T16:41:55.370Z,4576
2016-05-05T16:42:38.135Z,4548
2016-05-05T16:43:21.200Z,4516
2016-05-05T16:44:04.250Z,4488
2016-05-05T16:44:47.205Z,4460
2016-05-05T16:45:30.330Z,4436
2016-05-05T16:46:13.380Z,4412
2016-05-05T16:46:56.492Z,4376
2016-05-05T16:47:39.383Z,4352
2016-05-05T16:48:22.526Z,4308
2016-05-05T16:49:05.622Z,4260
2016-05-05T16:49:48.422Z,4220
2016-05-05T16:50:31.609Z,4192
2016-05-05T16:51:14.690Z,4152
2016-05-05T16:51:57.631Z,4128
2016-05-05T16:52:40.633Z,4132
2016-05-05T16:53:23.852Z,4128
2016-05-05T16:54:06.745Z,4120
2016-05-05T16:54:49.732Z,4112
2016-05-05T16:55:32.779Z,4092
2016-05-05T16:56:16.079Z,4056
2016-05-05T16:56:58.924Z,4052
2016-05-05T16:57:41.803Z,4028
2016-05-05T16:58:24.850Z,4020
2016-05-05T16:59:07.759Z,4000
2016-05-05T16:59:50.636Z,3968
2016-05-05T17:00:33.761Z,3964
2016-05-05T17:01:16.983Z,3960
2016-05-05T17:02:00.110Z,3960
2016-05-05T17:02:42.987Z,3952
2016-05-05T17:03:26.222Z,3928
2016-05-05T17:04:09.193Z,3900
2016-05-05T17:04:52.307Z,3900
2016-05-05T17:05:35.447Z,3892
2016-05-05T17:06:18.606Z,3872
2016-05-05T17:07:01.484Z,3856
2016-05-05T17:07:44.595Z,3836
2016-05-05T17:08:27.595Z,3812
2016-05-05T17:09:10.614Z,3788
2016-05-05T17:09:53.820Z,3768
2016-05-05T17:10:37.007Z,3736
2016-05-05T17:11:19.791Z,3724
2016-05-05T17:12:02.809Z,3708
2016-05-05T17:12:45.906Z,3668
2016-05-05T17:13:28.859Z,3636
2016-05-05T17:14:11.908Z,3620
2016-05-05T17:14:55.051Z,3588
2016-05-05T17:15:38.145Z,3528
2016-05-05T17:16:21.070Z,3516
2016-05-05T17:17:04.182Z,3488
2016-05-05T17:17:51.763Z,3468
2016-05-05T17:18:34.747Z,3436
2016-05-05T17:19:17.734Z,3408
2016-05-05T17:20:00.628Z,3380
2016-05-05T17:20:43.724Z,3348
2016-05-05T17:21:27.021Z,3304
2016-05-05T17:22:10.289Z,3276
2016-05-05T17:22:53.089Z,3260
2016-05-05T17:23:36.308Z,3236
2016-05-05T17:24:19.591Z,3212
2016-05-05T17:25:02.453Z,3184
2016-05-05T17:25:45.691Z,3188
2016-05-05T17:26:28.722Z,3176
2016-05-05T17:27:11.849Z,3152
2016-05-05T17:27:54.790Z,3124
2016-05-05T17:28:37.977Z,3104
2016-05-05T17:29:21.168Z,3088
2016-05-05T17:30:04.124Z,3048
2016-05-05T17:30:47.157Z,3012
2016-05-05T17:31:30.251Z,3008
2016-05-05T17:32:13.269Z,3012
2016-05-05T17:32:56.038Z,3008
2016-05-05T17:33:39.163Z,2988
2016-05-05T17:34:21.915Z,2960
2016-05-05T17:35:04.871Z,2944
2016-05-05T17:35:48.015Z,2924
2016-05-05T17:36:31.233Z,2884
2016-05-05T17:37:14.392Z,2840
2016-05-05T17:37:57.238Z,2784
2016-05-05T17:38:40.254Z,2744
2016-05-05T17:39:23.226Z,2692
2016-05-05T17:40:06.978Z,2648
2016-05-05T17:40:50.403Z,2620
2016-05-05T17:41:33.309Z,2588
2016-05-05T17:42:16.359Z,2552
2016-05-05T17:42:59.331Z,2532
2016-05-05T17:43:41.989Z,2520
2016-05-05T17:44:24.817Z,2508
2016-05-05T17:45:07.648Z,2492
2016-05-05T17:45:50.494Z,2472
2016-05-05T17:46:33.338Z,2456
2016-05-05T17:47:16.153Z,2448
2016-05-05T17:47:59.062Z,2432
2016-05-05T17:48:42.175Z,2420
2016-05-05T17:49:25.159Z,2416
2016-05-05T17:50:08.208Z,2408
2016-05-05T17:50:51.508Z,2412
2016-05-05T17:51:34.305Z,2420
2016-05-05T17:52:17.370Z,2440
2016-05-05T17:53:00.497Z,2444
2016-05-05T17:53:43.813Z,2444
2016-05-05T17:54:26.703Z,2444
2016-05-05T17:55:10.034Z,2444
2016-05-05T17:55:53.755Z,2436
2016-05-05T17:56:36.536Z,2432
2016-05-05T17:57:19.414Z,2420
2016-05-05T17:58:02.386Z,2404
2016-05-05T17:58:45.435Z,2392
2016-05-05T17:59:28.341Z,2384
2016-05-05T18:00:11.547Z,2376
2016-05-05T18:00:54.550Z,2356
2016-05-05T18:01:37.285Z,2344
2016-05-05T18:02:20.459Z,2332
2016-05-05T18:03:03.212Z,2316
2016-05-05T18:03:46.308Z,2300
2016-05-05T18:04:29.246Z,2288
2016-05-05T18:05:12.327Z,2268
2016-05-05T18:05:55.438Z,2252
2016-05-05T18:06:37.985Z,2232
2016-05-05T18:07:21.020Z,2216
2016-05-05T18:08:04.304Z,2196
2016-05-05T18:08:47.447Z,2176
2016-05-05T18:09:30.916Z,2152
2016-05-05T18:10:15.074Z,2128
2016-05-05T18:10:57.983Z,2108
2016-05-05T18:11:40.780Z,2084
2016-05-05T18:12:23.674Z,2060
2016-05-05T18:13:06.739Z,2036
2016-05-05T18:13:49.616Z,2012
2016-05-05T18:14:32.413Z,1988
2016-05-05T18:15:15.134Z,1964
2016-05-05T18:15:57.701Z,1940
2016-05-05T18:16:40.513Z,1920
2016-05-05T18:17:23.265Z,1896
2016-05-05T18:18:06.470Z,1872
2016-05-05T18:18:49.037Z,1848
2016-05-05T18:19:31.396Z,1820
2016-05-05T18:20:14.226Z,1792
2016-05-05T18:20:57.073Z,1768
2016-05-05T18:21:39.886Z,1736
2016-05-05T18:22:22.731Z,1708
2016-05-05T18:23:06.234Z,1676
2016-05-05T18:23:49.269Z,1648
2016-05-05T18:24:31.941Z,1616
2016-05-05T18:25:15.069Z,1588
2016-05-05T18:25:57.461Z,1556
2016-05-05T18:26:40.117Z,1524
2016-05-05T18:27:22.964Z,1492
2016-05-05T18:28:05.513Z,1464
2016-05-05T18:28:48.361Z,1432
2016-05-05T18:29:31.033Z,1396
2016-05-05T18:30:14.003Z,1360
2016-05-05T18:30:56.818Z,1320
2016-05-05T18:31:39.646Z,1280
2016-05-05T18:32:22.494Z,1244
2016-05-05T18:33:05.168Z,1208
2016-05-05T18:33:47.843Z,1172
2016-05-05T18:34:30.530Z,1144
2016-05-05T18:35:13.517Z,1108
2016-05-05T18:35:56.489Z,1080
2016-05-05T18:36:39.458Z,1052
2016-05-05T18:37:22.303Z,1016
2016-05-05T18:38:05.118Z,984
2016-05-05T18:38:48.106Z,948
2016-05-05T18:39:30.949Z,908
2016-05-05T18:40:15.452Z,868
2016-05-05T18:40:58.392Z,828
2016-05-05T18:41:41.361Z,792
2016-05-05T18:42:24.082Z,760
2016-05-05T18:43:07.382Z,724
2016-05-05T18:43:50.166Z,688
2016-05-05T18:44:33.323Z,660
2016-05-05T18:45:16.559Z,628
2016-05-05T18:45:59.500Z,600
2016-05-05T18:46:42.562Z,568
2016-05-05T18:47:25.673Z,540
2016-05-05T18:48:08.427Z,516
2016-05-05T18:48:51.304Z,488
2016-05-05T18:49:34.148Z,464
2016-05-05T18:50:17.276Z,440
2016-05-05T18:51:00.216Z,416
2016-05-05T18:51:42.950Z,396
2016-05-05T18:52:25.797Z,376
2016-05-05T18:53:08.847Z,352
2016-05-05T18:53:51.912Z,332
2016-05-05T18:54:34.928Z,316
2016-05-05T18:55:18.650Z,296
2016-05-05T18:56:02.104Z,276
2016-05-05T18:56:45.213Z,260
2016-05-05T18:57:28.419Z,240
2016-05-05T18:58:11.547Z,232
2016-05-05T18:58:54.675Z,212
2016-05-05T18:59:37.691Z,200
2016-05-05T19:00:20.553Z,184
2016-05-05T19:01:03.791Z,172
2016-05-05T19:01:46.511Z,160
2016-05-05T19:02:35.371Z,148
2016-05-05T19:03:18.233Z,140
2016-05-05T19:04:01.252Z,128
2016-05-05T19:04:44.361Z,120
2016-05-05T19:05:27.347Z,112
2016-05-05T19:06:09.819Z,104
2016-05-05T19:06:53.072Z,96
2016-05-05T19:07:36.072Z,92
2016-05-05T19:08:19.122Z,80
2016-05-05T19:09:02.218Z,76
2016-05-05T19:09:45.187Z,72
2016-05-05T19:10:29.579Z,64
2016-05-05T19:11:12.380Z,60
2016-05-05T19:11:55.210Z,56
2016-05-05T19:12:38.070Z,52
2016-05-05T19:13:21.213Z,48
2016-05-05T19:14:04.309Z,44
2016-05-05T19:14:47.309Z,40
2016-05-05T19:15:30.124Z,36
2016-05-05T19:16:12.909Z,32
2016-05-05T19:16:55.755Z,32
2016-05-05T19:17:38.630Z,28
2016-05-05T19:18:21.570Z,24
2016-05-05T19:19:04.510Z,24
2016-05-05T19:19:47.245Z,20
2016-05-05T19:20:29.795Z,20
2016-05-05T19:21:12.829Z,16
2016-05-05T19:21:55.815Z,16
2016-05-05T19:22:38.675Z,16
2016-05-05T19:23:21.771Z,12
2016-05-05T19:24:04.539Z,12
2016-05-05T19:24:47.477Z,8
2016-05-05T19:25:30.480Z,8
2016-05-05T19:26:13.295Z,8
2016-05-05T19:26:56.141Z,8
2016-05-05T19:27:39.281Z,8
2016-05-05T19:28:22.441Z,4
2016-05-05T19:29:05.178Z,8
2016-05-05T19:29:48.225Z,4
2016-05-05T19:30:31.180Z,4
2016-05-05T19:31:14.292Z,4
2016-05-05T19:31:57.280Z,4
2016-05-05T19:32:40.092Z,0
2016-05-05T19:33:22.830Z,4
2016-05-05T19:34:05.644Z,4
2016-05-05T19:34:48.332Z,4
2016-05-05T19:35:30.288Z,4
2016-05-05T19:36:12.806Z,0
2016-05-05T19:36:55.653Z,0
2016-05-05T19:37:37.294Z,0
2016-05-05T19:38:20.140Z,0
2016-05-05T19:39:02.971Z,0
2016-05-05T19:39:45.643Z,0
2016-05-05T19:40:28.879Z,0
2016-05-05T19:41:11.976Z,0
2016-05-05T19:41:54.681Z,0
2016-05-05T19:42:37.509Z,0
2016-05-05T19:43:20.185Z,0
2016-05-05T19:44:03.281Z,0
2016-05-05T19:44:46.124Z,0
2016-05-05T19:45:28.987Z,0
2016-05-05T19:46:11.833Z,0
2016-05-05T19:46:54.554Z,0
2016-05-05T19:47:37.273Z,0
2016-05-05T19:48:20.260Z,0
2016-05-05T19:49:03.373Z,0
2016-05-05T19:49:46.466Z,0
2016-05-05T19:50:29.562Z,0
2016-05-05T19:51:12.284Z,0
2016-05-05T19:51:55.520Z,0
2016-05-05T19:52:38.442Z,0
2016-05-05T19:53:21.383Z,0
2016-05-05T19:54:04.433Z,0
2016-05-05T19:54:47.479Z,0
2016-05-05T19:55:30.732Z,0
2016-05-05T19:56:13.719Z,0
2016-05-05T19:56:56.691Z,0
2016-05-05T19:57:39.612Z,0
2016-05-05T19:58:22.709Z,0
2016-05-05T19:59:05.665Z,0
2016-05-05T19:59:49.087Z,0
2016-05-05T20:00:32.074Z,0
2016-05-05T20:01:15.077Z,0
2016-05-05T20:01:58.157Z,0
2016-05-05T20:02:41.219Z,0
2016-05-05T20:03:24.223Z,0
2016-05-05T20:04:07.259Z,0
2016-05-05T20:04:49.869Z,0
2016-05-05T20:05:33.037Z,0
2016-05-05T20:06:16.144Z,0
2016-05-05T20:06:59.532Z,0
2016-05-05T20:07:42.548Z,0
2016-05-05T20:08:25.702Z,0
2016-05-05T20:09:08.821Z,0
2016-05-05T20:09:52.745Z,0
2016-05-05T20:10:36.886Z,0
2016-05-05T20:11:19.873Z,0
2016-05-05T20:12:02.766Z,0
2016-05-05T20:12:45.594Z,0
2016-05-05T20:13:28.423Z,0
2016-05-05T20:14:11.191Z,0
2016-05-05T20:14:53.981Z,0
2016-05-05T20:15:37.215Z,0
2016-05-05T20:16:20.113Z,0
2016-05-05T20:17:03.262Z,0
2016-05-05T20:17:46.340Z,0
2016-05-05T20:18:29.442Z,0
2016-05-05T20:19:12.403Z,0
2016-05-05T20:19:57.267Z,0
2016-05-05T20:20:40.470Z,0
2016-05-05T20:21:23.364Z,0
2016-05-05T20:22:06.557Z,0
2016-05-05T20:22:49.713Z,0
2016-05-05T20:23:32.999Z,0
2016-05-05T20:24:16.020Z,0
2016-05-05T20:24:59.007Z,0
2016-05-05T20:25:41.836Z,0
2016-05-05T20:26:24.668Z,0
2016-05-05T20:27:07.499Z,0
2016-05-05T20:27:50.343Z,0
2016-05-05T20:28:32.892Z,0
2016-05-05T20:29:15.568Z,0
2016-05-05T20:29:58.555Z,0
2016-05-05T20:30:41.523Z,0
2016-05-05T20:31:24.370Z,0
2016-05-05T20:32:07.358Z,0
2016-05-05T20:32:50.373Z,0
2016-05-05T20:33:33.297Z,0
2016-05-05T20:34:16.128Z,0
2016-05-05T20:34:59.100Z,0
2016-05-05T20:35:41.912Z,0
2016-05-05T20:36:24.744Z,0
2016-05-05T20:37:07.574Z,0
2016-05-05T20:37:50.527Z,0
2016-05-05T20:38:33.374Z,0
2016-05-05T20:39:16.407Z,0
2016-05-05T20:39:59.567Z,0
2016-05-05T20:40:42.926Z,0
2016-05-05T20:41:26.085Z,0
2016-05-05T20:42:09.150Z,0
2016-05-05T20:42:53.260Z,0
2016-05-05T20:43:36.450Z,0
2016-05-05T20:44:21.952Z,0
2016-05-05T20:45:05.143Z,0
2016-05-05T20:45:47.986Z,0
2016-05-05T20:46:31.426Z,0
2016-05-05T20:47:14.569Z,0
2016-05-05T20:47:57.635Z,0
2016-05-05T20:48:40.791Z,0
2016-05-05T20:49:24.435Z,0
2016-05-05T20:50:07.452Z,0
2016-05-05T20:50:50.718Z,0
2016-05-05T20:51:34.112Z,0
2016-05-05T20:52:17.458Z,0